Time;durP1;ratioP1;P1;durP2;ratioP2;P2;SDS_P1;SDS_P2;PMS_P1;PMS_P2;Temp;Humidity;BMP_temperature;BMP_pressure;BME280_temperature;BME280_humidity;BME280_pressure;Samples;Min_cycle;Max_cycle;Signal;HPM_P1;HPM_P2
2021/07/25 00:00:05;;;;;;;;;;;;;;;18.10;64.26;101047.95;1930372;74;20136;-60
2021/07/25 00:02:34;;;;;;;;;;;;;;;18.08;64.26;101045.88;1930545;74;20128;-60
2021/07/25 00:05:02;;;;;;;;;;;;;;;18.07;64.59;101050.81;1930410;74;20163;-60
2021/07/25 00:07:30;;;;;;;;;;;;;;;18.04;64.95;101049.70;1930375;74;20171;-60
2021/07/25 00:09:58;;;;;;;;;;;;;;;18.02;65.08;101046.29;1930419;74;20187;-60
2021/07/25 00:12:26;;;;;;;;;;;;;;;18.01;64.73;101041.91;1930586;74;20131;-60
2021/07/25 00:14:54;;;;;;;;;;;;;;;18.01;64.40;101040.56;1930403;74;20132;-60
2021/07/25 00:17:22;;;;;;;;;;;;;;;18.01;64.16;101042.39;1930361;74;20140;-60
2021/07/25 00:19:50;;;;;;;;;;;;;;;18.00;64.12;101034.88;1930382;74;20141;-60
2021/07/25 00:22:18;;;;;;;;;;;;;;;18.01;63.94;101038.39;1930417;74;20179;-60
2021/07/25 00:24:52;;;;;;;;;;;;;;;18.00;64.20;101035.34;1930260;74;20132;-62
2021/07/25 00:27:26;;;;;;;;;;;;;;;17.96;64.23;101032.02;1930206;74;20166;-60
2021/07/25 00:29:48;;;;;;;;;;;;;;;17.93;64.45;101034.41;1899772;74;20167;-60
2021/07/25 00:32:16;;;;;;;;;;;;;;;17.90;64.50;101033.27;1930442;74;20136;-60
2021/07/25 00:34:45;;;;;;;;;;;;;;;17.89;64.30;101030.70;1930436;74;20136;-60
2021/07/25 00:37:12;;;;;;;;;;;;;;;17.88;64.21;101025.02;1930278;74;20141;-62
2021/07/25 00:39:40;;;;;;;;;;;;;;;17.87;64.32;101028.62;1930384;74;20141;-60
2021/07/25 00:42:09;;;;;;;;;;;;;;;17.86;64.23;101034.44;1930374;74;20191;-60
2021/07/25 00:44:37;;;;;;;;;;;;;;;17.84;64.26;101031.47;1930356;74;20171;-60
2021/07/25 00:47:05;;;;;;;;;;;;;;;17.80;64.44;101031.27;1930388;74;20141;-60
2021/07/25 00:49:33;;;;;;;;;;;;;;;17.75;64.65;101027.10;1930387;74;20141;-60
2021/07/25 00:52:04;;;;;;;;;;;;;;;17.73;64.43;101026.35;1930316;74;20124;-60
2021/07/25 00:54:31;;;;;;;;;;;;;;;17.68;64.41;101028.45;1930350;74;20141;-60
2021/07/25 00:56:59;;;;;;;;;;;;;;;17.64;64.73;101029.61;1930365;74;20218;-60
2021/07/25 00:59:27;;;;;;;;;;;;;;;17.65;64.44;101027.34;1930378;74;20137;-60
2021/07/25 01:01:55;;;;;;;;;;;;;;;17.62;64.53;101025.34;1930374;74;20141;-60
2021/07/25 01:04:30;;;;;;;;;;;;;;;17.57;64.65;101024.30;1930261;74;20132;-61
2021/07/25 01:07:09;;;;;;;;;;;;;;;17.52;65.15;101027.72;1929749;74;20268;-60
2021/07/25 01:09:55;;;;;;;;;;;;;;;17.46;66.30;101026.78;1859908;77;20124;-60
2021/07/25 01:12:24;;;;;;;;;;;;;;;17.44;66.12;101024.70;1930358;74;20129;-60
2021/07/25 01:14:54;;;;;;;;;;;;;;;17.45;65.83;101018.44;1930293;74;20137;-60
2021/07/25 01:17:37;;;;;;;;;;;;;;;17.44;65.62;101022.88;1930337;74;20140;-60
2021/07/25 01:20:07;;;;;;;;;;;;;;;17.42;65.75;101023.46;1930341;74;20167;-60
2021/07/25 01:22:36;;;;;;;;;;;;;;;17.39;66.39;101016.99;1930387;74;20171;-60
2021/07/25 01:25:04;;;;;;;;;;;;;;;17.32;67.21;101021.86;1930308;74;20178;-61
2021/07/25 01:27:43;;;;;;;;;;;;;;;17.26;67.66;101024.89;1930367;74;20402;-59
2021/07/25 01:30:12;;;;;;;;;;;;;;;17.19;67.97;101023.59;1930343;74;20141;-60
2021/07/25 01:32:41;;;;;;;;;;;;;;;17.12;68.15;101027.58;1930359;74;20175;-60
2021/07/25 01:35:11;;;;;;;;;;;;;;;17.10;68.22;101029.48;1933803;74;20224;-60
2021/07/25 01:37:39;;;;;;;;;;;;;;;17.12;67.82;101024.92;1935723;74;20208;-60
2021/07/25 01:40:14;;;;;;;;;;;;;;;17.14;67.58;101023.02;1935854;74;20192;-60
2021/07/25 01:42:42;;;;;;;;;;;;;;;17.15;67.43;101028.70;1935845;74;20132;-60
2021/07/25 01:45:11;;;;;;;;;;;;;;;17.14;67.11;101016.37;1935792;74;20183;-60
2021/07/25 01:47:39;;;;;;;;;;;;;;;17.15;66.85;101024.70;1935943;74;20224;-60
2021/07/25 01:50:08;;;;;;;;;;;;;;;17.14;66.74;101023.86;1935961;74;20132;-63
2021/07/25 01:52:35;;;;;;;;;;;;;;;17.13;66.76;101022.63;1935980;74;20202;-60
2021/07/25 01:55:04;;;;;;;;;;;;;;;17.10;66.80;101020.17;1935982;74;20128;-60
2021/07/25 01:57:32;;;;;;;;;;;;;;;17.09;66.85;101019.78;1935962;74;20141;-60
2021/07/25 01:59:59;;;;;;;;;;;;;;;17.08;66.70;101019.39;1936163;74;20163;-60
2021/07/25 02:02:27;;;;;;;;;;;;;;;17.05;66.75;101018.27;1936039;74;20128;-60
2021/07/25 02:04:55;;;;;;;;;;;;;;;17.03;66.63;101017.51;1935850;74;20144;-60
2021/07/25 02:07:23;;;;;;;;;;;;;;;17.02;66.85;101026.42;1935949;74;20132;-60
2021/07/25 02:09:50;;;;;;;;;;;;;;;17.02;66.68;101017.11;1935988;74;20136;-60
2021/07/25 02:12:18;;;;;;;;;;;;;;;17.00;66.60;101017.20;1935987;74;20140;-60
2021/07/25 02:14:46;;;;;;;;;;;;;;;17.00;66.62;101019.02;1935855;74;20136;-60
2021/07/25 02:17:14;;;;;;;;;;;;;;;16.97;66.77;101019.59;1935955;74;20133;-61
2021/07/25 02:19:42;;;;;;;;;;;;;;;16.97;66.81;101026.23;1935826;74;20219;-60
2021/07/25 02:22:10;;;;;;;;;;;;;;;16.98;66.98;101019.11;1935937;74;20132;-60
2021/07/25 02:24:40;;;;;;;;;;;;;;;16.97;66.79;101026.72;1935832;74;20128;-60
2021/07/25 02:27:07;;;;;;;;;;;;;;;16.97;66.98;101022.25;1935987;74;20140;-60
2021/07/25 02:29:35;;;;;;;;;;;;;;;16.98;67.35;101026.60;1935845;74;20140;-60
2021/07/25 02:32:03;;;;;;;;;;;;;;;17.01;67.20;101033.56;1935923;74;20137;-60
2021/07/25 02:34:31;;;;;;;;;;;;;;;17.09;67.20;101041.06;1935818;74;20144;-60
2021/07/25 02:36:59;;;;;;;;;;;;;;;17.18;67.36;101040.50;1935857;74;20132;-60
2021/07/25 02:39:27;;;;;;;;;;;;;;;17.29;67.75;101042.48;1935840;74;20141;-60
2021/07/25 02:41:55;;;;;;;;;;;;;;;17.38;67.68;101037.92;1935825;74;20167;-60
2021/07/25 02:44:23;;;;;;;;;;;;;;;17.47;67.48;101042.67;1935764;73;20395;-60
2021/07/25 02:46:51;;;;;;;;;;;;;;;17.60;67.30;101046.73;1935831;74;20132;-60
2021/07/25 02:49:19;;;;;;;;;;;;;;;17.69;67.39;101043.48;1935847;74;20136;-60
2021/07/25 02:51:47;;;;;;;;;;;;;;;17.79;67.22;101043.73;1935880;74;20128;-60
2021/07/25 02:54:15;;;;;;;;;;;;;;;17.86;66.93;101041.09;1935852;74;20144;-60
2021/07/25 02:56:43;;;;;;;;;;;;;;;17.96;66.87;101044.00;1935803;74;20137;-60
2021/07/25 02:59:11;;;;;;;;;;;;;;;18.08;66.74;101043.21;1935708;74;20219;-60
2021/07/25 03:01:39;;;;;;;;;;;;;;;18.23;66.75;101048.48;1935887;74;20145;-60
2021/07/25 03:04:06;;;;;;;;;;;;;;;18.43;66.52;101040.02;1935826;74;20140;-60
2021/07/25 03:06:34;;;;;;;;;;;;;;;18.77;66.11;101039.52;1935784;74;20136;-60
2021/07/25 03:09:02;;;;;;;;;;;;;;;19.06;65.53;101041.55;1935861;74;20171;-60
2021/07/25 03:11:30;;;;;;;;;;;;;;;19.23;65.20;101047.02;1935796;74;20200;-60
2021/07/25 03:13:58;;;;;;;;;;;;;;;19.29;65.00;101040.78;1935780;74;20175;-60
2021/07/25 03:16:26;;;;;;;;;;;;;;;19.46;64.79;101045.41;1935862;74;20128;-60
2021/07/25 03:18:54;;;;;;;;;;;;;;;19.57;64.53;101051.28;1935860;74;20174;-60
2021/07/25 03:21:22;;;;;;;;;;;;;;;19.62;64.63;101051.35;1935843;74;20164;-60
2021/07/25 03:23:50;;;;;;;;;;;;;;;19.64;64.73;101057.43;1935806;74;20178;-60
2021/07/25 03:26:18;;;;;;;;;;;;;;;19.66;64.76;101055.50;1935723;74;20149;-60
2021/07/25 03:28:46;;;;;;;;;;;;;;;19.73;64.89;101065.77;1900447;74;20166;-60
2021/07/25 03:31:14;;;;;;;;;;;;;;;19.79;64.99;101061.30;1935830;74;20120;-60
2021/07/25 03:33:41;;;;;;;;;;;;;;;19.90;65.04;101060.06;1935826;73;20178;-60
2021/07/25 03:36:10;;;;;;;;;;;;;;;19.98;64.80;101060.34;1932874;74;20156;-60
2021/07/25 03:38:37;;;;;;;;;;;;;;;20.02;64.46;101063.14;1930285;74;20144;-60
2021/07/25 03:41:05;;;;;;;;;;;;;;;20.08;64.33;101059.66;1930320;74;20195;-60
2021/07/25 03:43:34;;;;;;;;;;;;;;;20.19;64.10;101066.39;1930394;73;20124;-60
2021/07/25 03:46:02;;;;;;;;;;;;;;;20.20;63.68;101072.13;1930317;74;20414;-60
2021/07/25 03:48:31;;;;;;;;;;;;;;;20.25;63.68;101068.59;1930377;74;20183;-60
2021/07/25 03:50:59;;;;;;;;;;;;;;;20.38;63.66;101064.06;1930289;74;20128;-61
2021/07/25 03:53:27;;;;;;;;;;;;;;;20.54;63.66;101066.91;1930268;74;20219;-61
2021/07/25 03:55:55;;;;;;;;;;;;;;;20.67;63.53;101069.03;1930329;74;20179;-61
2021/07/25 03:58:22;;;;;;;;;;;;;;;20.80;63.31;101070.28;1930328;74;20145;-61
2021/07/25 04:00:50;;;;;;;;;;;;;;;20.92;63.02;101067.17;1930405;74;20200;-61
2021/07/25 04:03:18;;;;;;;;;;;;;;;21.05;62.82;101074.60;1930305;74;20128;-61
2021/07/25 04:05:46;;;;;;;;;;;;;;;21.23;62.54;101076.80;1930184;74;20140;-61
2021/07/25 04:08:15;;;;;;;;;;;;;;;21.41;62.29;101072.66;1930330;74;20129;-61
2021/07/25 04:10:44;;;;;;;;;;;;;;;21.64;62.08;101072.70;1930463;74;20140;-61
2021/07/25 04:13:12;;;;;;;;;;;;;;;21.86;61.75;101078.52;1900128;74;20125;-61
2021/07/25 04:15:41;;;;;;;;;;;;;;;22.08;61.55;101069.07;1930309;74;20202;-61
2021/07/25 04:18:09;;;;;;;;;;;;;;;22.37;61.30;101069.83;1930202;74;20426;-62
2021/07/25 04:20:37;;;;;;;;;;;;;;;22.72;61.04;101066.88;1930222;74;20223;-61
2021/07/25 04:23:05;;;;;;;;;;;;;;;23.05;60.68;101062.27;1930251;74;20167;-61
2021/07/25 04:25:34;;;;;;;;;;;;;;;23.39;60.27;101066.05;1930273;74;20136;-61
2021/07/25 04:28:03;;;;;;;;;;;;;;;23.78;60.10;101065.33;1930305;74;20129;-61
2021/07/25 04:30:32;;;;;;;;;;;;;;;24.14;59.46;101058.45;1930291;74;20199;-61
2021/07/25 04:33:01;;;;;;;;;;;;;;;24.49;58.98;101070.50;1930213;74;20128;-62
2021/07/25 04:35:31;;;;;;;;;;;;;;;24.80;58.55;101063.64;1930399;74;20407;-63
2021/07/25 04:37:59;;;;;;;;;;;;;;;25.08;58.12;101062.36;1935875;74;20168;-62
2021/07/25 04:40:27;;;;;;;;;;;;;;;25.35;57.71;101062.42;1935804;74;20143;-61
2021/07/25 04:42:56;;;;;;;;;;;;;;;25.58;57.01;101067.42;1935763;74;20140;-61
2021/07/25 04:45:38;;;;;;;;;;;;;;;25.81;56.62;101063.83;1935660;74;20387;-62
2021/07/25 04:48:07;;;;;;;;;;;;;;;25.94;55.45;101068.89;1934541;74;20169;-61
2021/07/25 04:50:36;;;;;;;;;;;;;;;26.08;55.29;101064.32;1935834;74;20164;-61
2021/07/25 04:53:06;;;;;;;;;;;;;;;26.34;54.81;101071.66;1935773;74;20433;-61
2021/07/25 04:55:35;;;;;;;;;;;;;;;26.49;54.41;101080.05;1935791;74;20140;-61
2021/07/25 04:58:05;;;;;;;;;;;;;;;26.68;54.00;101074.99;1935615;74;20418;-62
2021/07/25 05:00:33;;;;;;;;;;;;;;;26.84;52.51;101084.57;1935757;74;20128;-62
2021/07/25 05:03:03;;;;;;;;;;;;;;;26.84;51.58;101083.22;1935708;74;20514;-61
2021/07/25 05:05:32;;;;;;;;;;;;;;;27.03;51.43;101082.67;1935697;74;20184;-61
2021/07/25 05:08:00;;;;;;;;;;;;;;;27.11;50.26;101082.22;1935989;74;20402;-62
2021/07/25 05:10:29;;;;;;;;;;;;;;;27.16;49.43;101076.32;1935674;74;20456;-63
2021/07/25 05:13:01;;;;;;;;;;;;;;;27.23;48.43;101073.32;1935774;74;20390;-62
2021/07/25 05:15:33;;;;;;;;;;;;;;;27.34;49.32;101070.87;1935766;74;20124;-62
2021/07/25 05:18:03;;;;;;;;;;;;;;;27.49;47.97;101066.55;1935771;74;20445;-62
2021/07/25 05:20:32;;;;;;;;;;;;;;;27.66;48.24;101066.09;1934657;74;20140;-62
2021/07/25 05:23:04;;;;;;;;;;;;;;;27.70;45.74;101067.48;1935436;74;20140;-63
2021/07/25 05:25:32;;;;;;;;;;;;;;;27.73;46.93;101071.19;1935839;74;20434;-62
2021/07/25 05:28:02;;;;;;;;;;;;;;;27.96;47.07;101074.69;1935878;74;20128;-61
2021/07/25 05:30:31;;;;;;;;;;;;;;;28.16;46.46;101074.37;1935905;74;20398;-61
2021/07/25 05:32:58;;;;;;;;;;;;;;;28.37;46.66;101069.32;1935847;74;20163;-62
2021/07/25 05:35:26;;;;;;;;;;;;;;;28.67;46.94;101071.03;1935788;74;20175;-61
2021/07/25 05:37:54;;;;;;;;;;;;;;;28.95;46.33;101073.37;1935776;73;20128;-61
2021/07/25 05:40:22;;;;;;;;;;;;;;;29.01;44.52;101070.83;1935860;74;20144;-61
2021/07/25 05:42:50;;;;;;;;;;;;;;;29.30;45.16;101069.92;1923196;74;20138;-61
2021/07/25 05:45:18;;;;;;;;;;;;;;;29.48;45.03;101070.52;1913756;75;20106;-61
2021/07/25 05:47:46;;;;;;;;;;;;;;;29.74;45.65;101063.99;1913732;75;20145;-63
2021/07/25 05:50:14;;;;;;;;;;;;;;;29.93;44.78;101064.88;1913759;75;20431;-61
2021/07/25 05:52:50;;;;;;;;;;;;;;;30.11;43.48;101070.55;1913740;75;20173;-61
2021/07/25 05:55:19;;;;;;;;;;;;;;;30.11;43.95;101070.55;1913785;75;20106;-61
2021/07/25 05:57:46;;;;;;;;;;;;;;;30.20;43.29;101060.80;1913856;75;20126;-61
2021/07/25 06:00:14;;;;;;;;;;;;;;;30.35;42.51;101064.95;1913737;75;20145;-61
2021/07/25 06:02:51;;;;;;;;;;;;;;;30.46;42.58;101066.92;1913682;75;20177;-61
2021/07/25 06:05:19;;;;;;;;;;;;;;;30.72;42.07;101064.63;1913756;75;20114;-61
2021/07/25 06:07:47;;;;;;;;;;;;;;;30.77;41.08;101059.49;1913705;75;20110;-61
2021/07/25 06:10:15;;;;;;;;;;;;;;;31.02;42.28;101063.86;1913741;75;20115;-62
2021/07/25 06:12:44;;;;;;;;;;;;;;;31.36;42.38;101063.30;1913754;75;20114;-61
2021/07/25 06:15:12;;;;;;;;;;;;;;;31.66;42.53;101060.56;1913648;75;20158;-61
2021/07/25 06:17:40;;;;;;;;;;;;;;;31.97;42.80;101066.26;1913783;75;20114;-61
2021/07/25 06:20:08;;;;;;;;;;;;;;;32.27;42.79;101063.75;1913791;75;20149;-61
2021/07/25 06:22:37;;;;;;;;;;;;;;;32.55;41.81;101064.83;1913744;75;20119;-61
2021/07/25 06:25:05;;;;;;;;;;;;;;;32.59;40.53;101061.56;1913790;75;20389;-61
2021/07/25 06:27:33;;;;;;;;;;;;;;;32.45;39.93;101059.73;1913664;75;20106;-62
2021/07/25 06:30:01;;;;;;;;;;;;;;;32.40;39.48;101056.22;1913866;75;20110;-61
2021/07/25 06:32:29;;;;;;;;;;;;;;;32.45;39.35;101063.81;1913772;75;20110;-61
2021/07/25 06:34:57;;;;;;;;;;;;;;;32.65;39.83;101064.85;1913832;75;20111;-61
2021/07/25 06:37:25;;;;;;;;;;;;;;;32.91;40.03;101067.45;1913694;75;20119;-61
2021/07/25 06:39:52;;;;;;;;;;;;;;;33.22;39.67;101057.50;1913736;75;20110;-61
2021/07/25 06:42:20;;;;;;;;;;;;;;;33.17;36.70;101053.69;1913162;75;20114;-60
2021/07/25 06:44:48;;;;;;;;;;;;;;;33.00;35.93;101058.60;1913707;75;20119;-61
2021/07/25 06:47:16;;;;;;;;;;;;;;;32.94;37.02;101058.85;1928978;73;20136;-61
2021/07/25 06:49:45;;;;;;;;;;;;;;;33.08;37.26;101057.06;1935881;74;20117;-62
2021/07/25 06:52:13;;;;;;;;;;;;;;;33.06;34.28;101046.87;1958130;72;20123;-63
2021/07/25 06:54:40;;;;;;;;;;;;;;;32.94;34.84;101053.39;1980575;72;20115;-60
2021/07/25 06:57:08;;;;;;;;;;;;;;;32.91;35.14;101053.81;1980690;72;20141;-60
2021/07/25 06:59:37;;;;;;;;;;;;;;;33.15;35.76;101047.59;1980638;72;20107;-60
2021/07/25 07:02:06;;;;;;;;;;;;;;;33.38;34.32;101051.37;1980633;72;20112;-60
2021/07/25 07:04:33;;;;;;;;;;;;;;;33.35;34.66;101058.08;1980698;72;20123;-60
2021/07/25 07:07:05;;;;;;;;;;;;;;;33.47;34.48;101056.44;1979139;72;20182;-61
2021/07/25 07:09:33;;;;;;;;;;;;;;;33.49;34.06;101063.59;1980716;72;20107;-60
2021/07/25 07:12:01;;;;;;;;;;;;;;;33.45;33.55;101066.72;1980631;72;20146;-59
2021/07/25 07:17:22;;;;;;;;;;;;;;;33.40;32.99;101073.34;1965174;73;20146;-60
2021/07/25 07:19:49;;;;;;;;;;;;;;;33.59;33.22;101075.83;1964085;73;20146;-59
2021/07/25 07:22:31;;;;;;;;;;;;;;;33.89;33.51;101066.50;1965186;73;20116;-60
2021/07/25 07:24:59;;;;;;;;;;;;;;;34.02;33.48;101074.72;1964513;73;20140;-59
2021/07/25 07:27:28;;;;;;;;;;;;;;;33.90;32.16;101070.90;1965211;73;20146;-59
2021/07/25 07:29:57;;;;;;;;;;;;;;;33.67;31.71;101070.73;1960852;73;20140;-61
2021/07/25 07:32:31;;;;;;;;;;;;;;;33.70;32.60;101064.88;1965398;73;20100;-60
2021/07/25 07:35:00;;;;;;;;;;;;;;;33.97;31.98;101063.56;1965285;73;20189;-60
2021/07/25 07:37:29;;;;;;;;;;;;;;;33.85;31.65;101065.54;1965130;73;20108;-60
2021/07/25 07:39:59;;;;;;;;;;;;;;;33.96;31.99;101066.00;1965138;73;20142;-60
2021/07/25 07:42:27;;;;;;;;;;;;;;;34.04;31.67;101058.95;1964776;73;20104;-65
2021/07/25 07:44:55;;;;;;;;;;;;;;;34.31;32.29;101068.08;1964878;73;20112;-61
2021/07/25 07:47:23;;;;;;;;;;;;;;;34.56;31.07;101070.17;1965054;73;20112;-61
2021/07/25 07:49:51;;;;;;;;;;;;;;;34.65;31.74;101068.07;1965209;73;20160;-61
2021/07/25 07:52:19;;;;;;;;;;;;;;;34.76;29.89;101071.56;1964927;73;20105;-61
2021/07/25 07:54:47;;;;;;;;;;;;;;;34.50;30.76;101075.95;1963079;73;20120;-59
2021/07/25 07:57:15;;;;;;;;;;;;;;;34.69;31.32;101072.09;1964377;73;20140;-60
2021/07/25 07:59:43;;;;;;;;;;;;;;;34.84;30.53;101069.95;1965169;73;20114;-61
2021/07/25 08:02:11;;;;;;;;;;;;;;;34.84;30.93;101074.59;1965157;73;20168;-61
2021/07/25 08:04:39;;;;;;;;;;;;;;;35.06;30.97;101080.13;1965260;73;20126;-61
2021/07/25 08:07:07;;;;;;;;;;;;;;;35.34;31.21;101069.45;1965003;73;20155;-60
2021/07/25 08:09:35;;;;;;;;;;;;;;;35.42;30.16;101079.34;1965045;73;20115;-61
2021/07/25 08:12:04;;;;;;;;;;;;;;;35.35;30.60;101069.23;1964691;73;20112;-61
2021/07/25 08:14:32;;;;;;;;;;;;;;;35.61;30.02;101078.39;1965321;73;20365;-61
2021/07/25 08:17:00;;;;;;;;;;;;;;;35.57;30.19;101075.25;1940966;73;20142;-60
2021/07/25 08:19:28;;;;;;;;;;;;;;;35.63;30.35;101065.32;1926150;74;20130;-61
2021/07/25 08:21:56;;;;;;;;;;;;;;;35.73;29.72;101056.15;1928685;74;20124;-62
2021/07/25 08:24:24;;;;;;;;;;;;;;;35.53;29.49;101056.75;1930845;74;20112;-61
2021/07/25 08:26:52;;;;;;;;;;;;;;;35.37;29.08;101061.64;1930875;74;20100;-62
2021/07/25 08:29:20;;;;;;;;;;;;;;;35.31;29.87;101062.52;1930963;74;20116;-61
2021/07/25 08:31:49;;;;;;;;;;;;;;;35.64;30.22;101060.17;1930380;74;20139;-60
2021/07/25 08:34:17;;;;;;;;;;;;;;;36.03;29.89;101062.39;1931100;74;20146;-60
2021/07/25 08:36:45;;;;;;;;;;;;;;;36.29;29.94;101063.30;1930820;73;20108;-61
2021/07/25 08:39:13;;;;;;;;;;;;;;;36.65;29.89;101058.45;1929232;74;20151;-60
2021/07/25 08:41:49;;;;;;;;;;;;;;;36.83;29.36;101063.15;1920649;75;20198;-61
2021/07/25 08:44:35;;;;;;;;;;;;;;;36.85;29.41;101056.06;1920827;75;20139;-60
2021/07/25 08:47:04;;;;;;;;;;;;;;;36.65;29.08;101061.20;1920818;75;20386;-63
2021/07/25 08:49:39;;;;;;;;;;;;;;;36.59;28.93;101059.88;1885049;76;20160;-60
2021/07/25 08:52:09;;;;;;;;;;;;;;;36.40;29.07;101053.52;1870697;76;20147;-60
2021/07/25 08:54:38;;;;;;;;;;;;;;;36.30;29.30;101051.28;1884826;76;20104;-61
2021/07/25 08:57:09;;;;;;;;;;;;;;;36.51;29.40;101046.75;1885165;75;20124;-61
2021/07/25 08:59:37;;;;;;;;;;;;;;;36.55;29.29;101054.55;1885195;75;20151;-62
2021/07/25 09:02:07;;;;;;;;;;;;;;;36.63;29.22;101054.24;1885057;76;20497;-60
2021/07/25 09:04:34;;;;;;;;;;;;;;;36.70;29.27;101039.97;1885144;76;20120;-60
2021/07/25 09:07:03;;;;;;;;;;;;;;;36.92;29.47;101034.05;1885038;76;20116;-60
2021/07/25 09:09:31;;;;;;;;;;;;;;;37.33;29.23;101042.16;1885020;76;20179;-60
2021/07/25 09:11:59;;;;;;;;;;;;;;;37.36;28.66;101032.09;1885050;75;20143;-60
2021/07/25 09:14:27;;;;;;;;;;;;;;;36.93;28.04;101028.34;1884970;76;20117;-61
2021/07/25 09:16:56;;;;;;;;;;;;;;;36.73;28.82;101031.30;1901452;75;20110;-60
2021/07/25 09:19:23;;;;;;;;;;;;;;;36.84;28.75;101031.91;1920674;75;20419;-60
2021/07/25 09:21:52;;;;;;;;;;;;;;;36.79;28.72;101026.80;1920473;75;20150;-60
2021/07/25 09:24:28;;;;;;;;;;;;;;;36.74;28.60;101030.22;1920476;75;20106;-60
2021/07/25 09:27:00;;;;;;;;;;;;;;;36.56;28.76;101024.67;1920316;75;20115;-60
2021/07/25 09:29:37;;;;;;;;;;;;;;;36.36;28.92;101024.33;1920506;75;20148;-61
2021/07/25 09:32:15;;;;;;;;;;;;;;;36.27;28.92;101020.20;1920663;75;20364;-60
2021/07/25 09:34:44;;;;;;;;;;;;;;;36.17;28.99;101019.30;1920412;75;20158;-60
2021/07/25 09:37:20;;;;;;;;;;;;;;;36.13;29.02;101010.69;1920378;75;20438;-61
2021/07/25 09:39:49;;;;;;;;;;;;;;;35.94;28.71;101013.86;1920400;75;20361;-60
2021/07/25 09:42:18;;;;;;;;;;;;;;;35.81;28.62;101008.48;1920458;75;20114;-60
2021/07/25 09:44:52;;;;;;;;;;;;;;;35.85;29.14;101010.25;1920300;75;20150;-60
2021/07/25 09:47:33;;;;;;;;;;;;;;;35.95;29.22;101005.13;1920425;75;20110;-60
2021/07/25 09:50:02;;;;;;;;;;;;;;;36.31;29.27;101009.08;1920377;75;20755;-60
2021/07/25 09:52:31;;;;;;;;;;;;;;;36.44;28.80;100997.16;1920486;75;20103;-60
2021/07/25 09:54:58;;;;;;;;;;;;;;;36.40;28.91;101001.42;1920445;75;20130;-60
2021/07/25 09:57:27;;;;;;;;;;;;;;;36.60;28.95;100997.95;1920455;75;20102;-60
2021/07/25 09:59:56;;;;;;;;;;;;;;;36.62;28.62;100994.98;1920580;75;20114;-60
2021/07/25 10:02:25;;;;;;;;;;;;;;;36.44;28.28;100992.50;1920347;75;20144;-60
2021/07/25 10:05:06;;;;;;;;;;;;;;;36.32;28.00;100992.95;1915943;75;20114;-60
2021/07/25 10:07:35;;;;;;;;;;;;;;;36.28;28.60;100995.81;1920340;75;20114;-60
2021/07/25 10:10:03;;;;;;;;;;;;;;;36.56;28.50;100994.50;1920374;75;20149;-60
2021/07/25 10:12:36;;;;;;;;;;;;;;;36.45;28.01;100993.37;1920383;75;20156;-60
2021/07/25 10:15:07;;;;;;;;;;;;;;;36.17;28.18;100984.18;1920541;75;20376;-60
2021/07/25 10:17:36;;;;;;;;;;;;;;;35.90;28.15;100992.08;1920360;75;20106;-60
2021/07/25 10:20:06;;;;;;;;;;;;;;;35.99;28.57;100988.55;1920498;75;20110;-60
2021/07/25 10:22:34;;;;;;;;;;;;;;;35.93;28.24;100989.42;1920428;75;20356;-60
2021/07/25 10:25:03;;;;;;;;;;;;;;;35.90;28.66;100982.49;1920536;75;20170;-60
2021/07/25 10:27:34;;;;;;;;;;;;;;;35.93;28.60;100975.72;1920352;75;20474;-60
2021/07/25 10:30:06;;;;;;;;;;;;;;;35.85;28.30;100989.70;1920440;75;20158;-60
2021/07/25 10:32:35;;;;;;;;;;;;;;;35.59;28.09;100984.67;1920401;75;20411;-60
2021/07/25 10:35:05;;;;;;;;;;;;;;;35.35;28.34;100989.02;1920456;75;20381;-60
2021/07/25 10:37:33;;;;;;;;;;;;;;;35.33;28.91;100983.75;1920367;75;20404;-60
2021/07/25 10:40:02;;;;;;;;;;;;;;;35.31;28.92;100981.77;1920390;75;20201;-60
2021/07/25 10:42:31;;;;;;;;;;;;;;;35.45;29.00;100978.95;1920403;75;20103;-60
2021/07/25 10:44:59;;;;;;;;;;;;;;;35.52;29.15;100976.48;1920415;75;20142;-60
2021/07/25 10:47:28;;;;;;;;;;;;;;;35.65;28.88;100983.78;1920395;75;20145;-60
2021/07/25 10:50:04;;;;;;;;;;;;;;;35.51;28.80;100976.73;1919880;75;20399;-60
2021/07/25 10:53:02;;;;;;;;;;;;;;;35.49;29.05;100977.48;1947011;73;20189;-60
2021/07/25 10:55:43;;;;;;;;;;;;;;;35.52;29.23;100974.28;1952998;73;20120;-61
2021/07/25 10:58:12;;;;;;;;;;;;;;;35.56;29.00;100979.12;1920419;75;20111;-61
2021/07/25 11:00:41;;;;;;;;;;;;;;;35.29;28.78;100977.05;1949925;73;20404;-62
2021/07/25 11:03:10;;;;;;;;;;;;;;;34.89;28.76;100973.59;1954171;73;20116;-61
2021/07/25 11:05:45;;;;;;;;;;;;;;;34.51;29.38;100972.91;1953699;73;20402;-61
2021/07/25 11:08:14;;;;;;;;;;;;;;;34.40;29.71;100969.78;1871322;75;20117;-60
2021/07/25 11:10:45;;;;;;;;;;;;;;;34.38;30.05;100972.39;1909669;75;20163;-60
2021/07/25 11:13:15;;;;;;;;;;;;;;;34.35;30.11;100968.73;1912218;75;20104;-60
2021/07/25 11:15:43;;;;;;;;;;;;;;;34.19;30.11;100965.89;1913080;75;20436;-60
2021/07/25 11:18:16;;;;;;;;;;;;;;;34.05;30.47;100973.23;1918127;74;20226;-60
2021/07/25 11:20:58;;;;;;;;;;;;;;;34.06;30.37;100962.61;1924133;74;20405;-61
2021/07/25 11:23:33;;;;;;;;;;;;;;;33.99;30.32;100960.39;1926489;74;20108;-62
2021/07/25 11:25:57;;;;;;;;;;;;;;;34.05;30.51;100951.38;1933140;74;20112;-60
2021/07/25 11:28:42;;;;;;;;;;;;;;;34.15;30.54;100951.78;1933571;74;20112;-60
2021/07/25 11:31:14;;;;;;;;;;;;;;;34.28;30.66;100950.97;1933425;74;20374;-61
2021/07/25 11:33:43;;;;;;;;;;;;;;;34.39;30.73;100942.66;1933229;74;20147;-60
2021/07/25 11:36:12;;;;;;;;;;;;;;;34.25;30.86;100947.81;1933137;74;20112;-60
2021/07/25 11:38:43;;;;;;;;;;;;;;;34.02;30.69;100949.06;1933378;74;20155;-60
2021/07/25 11:41:11;;;;;;;;;;;;;;;33.91;30.77;100941.49;1933394;74;20123;-60
2021/07/25 11:43:50;;;;;;;;;;;;;;;33.83;30.71;100939.28;1933313;74;20104;-60
2021/07/25 11:46:28;;;;;;;;;;;;;;;33.74;30.81;100940.53;1910146;74;20123;-60
2021/07/25 11:49:14;;;;;;;;;;;;;;;33.62;30.50;100939.42;1933215;74;20221;-60
2021/07/25 11:51:44;;;;;;;;;;;;;;;33.51;30.47;100944.12;1933231;74;20146;-60
2021/07/25 11:54:13;;;;;;;;;;;;;;;33.44;30.65;100931.31;1930219;74;20108;-60
2021/07/25 11:56:56;;;;;;;;;;;;;;;33.46;30.36;100940.14;1933345;74;20120;-60
2021/07/25 11:59:24;;;;;;;;;;;;;;;33.43;30.60;100935.61;1933236;74;20100;-60
2021/07/25 12:01:52;;;;;;;;;;;;;;;33.52;30.80;100937.10;1933232;74;20151;-60
2021/07/25 12:04:25;;;;;;;;;;;;;;;33.63;30.79;100932.92;1933165;74;20138;-60
2021/07/25 12:07:00;;;;;;;;;;;;;;;33.82;30.93;100926.66;1933488;74;20471;-60
2021/07/25 12:09:28;;;;;;;;;;;;;;;33.90;30.35;100934.34;1933166;74;20100;-60
2021/07/25 12:12:03;;;;;;;;;;;;;;;33.92;30.43;100926.27;1933241;74;20116;-60
2021/07/25 12:14:31;;;;;;;;;;;;;;;33.91;30.40;100933.30;1933218;74;20378;-61
2021/07/25 12:16:59;;;;;;;;;;;;;;;33.73;30.33;100929.81;1933382;74;20104;-60
2021/07/25 12:19:27;;;;;;;;;;;;;;;33.72;30.54;100924.89;1923292;74;20143;-60
2021/07/25 12:22:06;;;;;;;;;;;;;;;33.87;30.50;100922.48;1920552;75;20159;-61
2021/07/25 12:24:35;;;;;;;;;;;;;;;33.88;30.50;100919.52;1920657;75;20147;-60
2021/07/25 12:27:03;;;;;;;;;;;;;;;33.79;30.48;100916.68;1920670;75;20168;-60
2021/07/25 12:29:39;;;;;;;;;;;;;;;33.67;30.37;100915.11;1920647;75;20108;-60
2021/07/25 12:32:26;;;;;;;;;;;;;;;33.68;30.76;100914.07;1920538;74;20117;-61
2021/07/25 12:34:55;;;;;;;;;;;;;;;33.81;30.82;100916.80;1920681;75;20143;-60
2021/07/25 12:37:26;;;;;;;;;;;;;;;33.84;30.87;100912.27;1920341;75;20157;-63
2021/07/25 12:40:08;;;;;;;;;;;;;;;33.81;30.84;100912.70;1920573;75;20175;-64
2021/07/25 12:42:37;;;;;;;;;;;;;;;33.73;30.92;100916.99;1921390;73;20358;-63
2021/07/25 12:45:26;;;;;;;;;;;;;;;33.70;30.93;100906.51;1920591;75;20213;-62
2021/07/25 12:48:12;;;;;;;;;;;;;;;33.67;31.10;100900.09;1931952;73;20113;-62
2021/07/25 12:50:44;;;;;;;;;;;;;;;33.48;31.28;100905.81;1953715;73;20100;-61